createdAt,value
2023-01-19T00:01:30.862Z,2.81
2023-01-19T00:03:58.647Z,2.81
2023-01-19T00:06:26.610Z,2.55
2023-01-19T00:08:54.389Z,2.38
2023-01-19T00:11:22.077Z,2.22
2023-01-19T00:13:50.936Z,2.28
2023-01-19T00:16:23.126Z,2.20
2023-01-19T00:18:52.496Z,2.32
2023-01-19T00:21:21.732Z,2.21
2023-01-19T00:23:51.208Z,2.24
2023-01-19T00:26:22.087Z,2.23
2023-01-19T00:28:50.817Z,2.37
2023-01-19T00:31:21.574Z,2.36
2023-01-19T00:33:51.456Z,2.35
2023-01-19T00:36:19.627Z,2.20
2023-01-19T00:38:47.321Z,2.28
2023-01-19T00:41:15.100Z,2.43
2023-01-19T00:43:42.814Z,2.40
2023-01-19T00:46:10.725Z,2.49
2023-01-19T00:48:39.832Z,2.61
2023-01-19T00:51:07.545Z,2.60
2023-01-19T00:53:35.243Z,2.72
2023-01-19T00:56:02.877Z,2.75
2023-01-19T00:58:30.610Z,2.81
2023-01-19T01:01:03.573Z,2.61
2023-01-19T01:03:31.604Z,2.59
2023-01-19T01:06:00.661Z,2.53
2023-01-19T01:08:28.384Z,2.48
2023-01-19T01:10:56.316Z,2.44
2023-01-19T01:13:27.286Z,2.31
2023-01-19T01:15:56.724Z,2.32
2023-01-19T01:18:24.748Z,2.08
2023-01-19T01:20:54.504Z,2.01
2023-01-19T01:23:24.352Z,1.96
2023-01-19T01:25:52.087Z,1.82
2023-01-19T01:28:19.777Z,1.72
2023-01-19T01:30:47.533Z,1.60
2023-01-19T01:33:15.396Z,1.56
2023-01-19T01:36:03.195Z,1.57
2023-01-19T01:38:32.246Z,1.64
2023-01-19T01:41:00.135Z,1.61
2023-01-19T01:43:43.924Z,1.67
2023-01-19T01:46:15.384Z,1.71
2023-01-19T01:48:47.591Z,1.89
2023-01-19T01:51:27.661Z,2.05
2023-01-19T01:54:17.735Z,2.21
2023-01-19T01:56:48.327Z,2.38
2023-01-19T01:59:25.839Z,2.44
2023-01-19T02:02:12.944Z,2.37
2023-01-19T02:04:44.111Z,2.41
2023-01-19T02:07:33.627Z,2.37
2023-01-19T02:10:20.257Z,2.25
2023-01-19T02:13:06.098Z,2.15
2023-01-19T02:15:34.152Z,2.31
2023-01-19T02:18:02.020Z,2.00
2023-01-19T02:20:32.705Z,2.07
2023-01-19T02:23:06.497Z,1.86
2023-01-19T02:25:35.779Z,1.67
2023-01-19T02:28:05.079Z,1.77
2023-01-19T02:30:33.890Z,1.90
2023-01-19T02:33:02.095Z,1.95
2023-01-19T02:35:31.792Z,2.08
2023-01-19T02:38:00.323Z,2.36
2023-01-19T02:40:29.129Z,2.47
2023-01-19T02:43:00.911Z,2.68
2023-01-19T02:45:29.062Z,2.78
2023-01-19T02:47:57.123Z,2.89
2023-01-19T02:50:43.790Z,2.87
2023-01-19T02:53:37.671Z,2.85
2023-01-19T02:56:23.335Z,2.96
2023-01-19T02:58:59.455Z,2.84
2023-01-19T03:01:36.834Z,2.75
2023-01-19T03:04:12.616Z,2.79
2023-01-19T03:06:47.421Z,2.86
2023-01-19T03:09:23.150Z,2.83
2023-01-19T03:11:57.177Z,2.94
2023-01-19T03:14:30.519Z,3.05
2023-01-19T03:17:03.552Z,3.12
2023-01-19T03:19:37.340Z,3.20
2023-01-19T03:22:10.257Z,3.25
2023-01-19T03:24:41.854Z,3.34
2023-01-19T03:27:14.877Z,3.38
2023-01-19T03:29:51.895Z,3.41
2023-01-19T03:32:23.440Z,3.25
2023-01-19T03:34:53.849Z,2.99
2023-01-19T03:37:24.138Z,2.74
2023-01-19T03:39:51.945Z,2.69
2023-01-19T03:42:21.358Z,2.74
2023-01-19T03:44:51.307Z,2.88
2023-01-19T03:47:21.104Z,3.08
2023-01-19T03:49:50.729Z,3.20
2023-01-19T03:52:18.549Z,3.19
2023-01-19T03:54:46.309Z,3.14
2023-01-19T03:57:13.999Z,3.13
2023-01-19T03:59:41.807Z,3.14
2023-01-19T04:02:11.007Z,3.27
2023-01-19T04:04:38.735Z,3.24
2023-01-19T04:07:06.951Z,3.12
2023-01-19T04:09:34.624Z,2.92
2023-01-19T04:12:03.674Z,2.69
2023-01-19T04:14:31.478Z,2.48
2023-01-19T04:16:59.174Z,2.47
2023-01-19T04:19:28.222Z,2.55
2023-01-19T04:21:56.900Z,2.56
2023-01-19T04:24:24.681Z,2.55
2023-01-19T04:26:52.833Z,2.55
2023-01-19T04:29:20.538Z,2.53
2023-01-19T04:31:48.231Z,2.36
2023-01-19T04:34:15.991Z,2.26
2023-01-19T04:36:45.384Z,2.30
2023-01-19T04:39:13.055Z,2.32
2023-01-19T04:41:41.896Z,2.16
2023-01-19T04:44:09.918Z,2.08
2023-01-19T04:46:37.562Z,2.01
2023-01-19T04:49:05.279Z,2.05
2023-01-19T04:51:34.362Z,2.29
2023-01-19T04:54:04.018Z,2.37
2023-01-19T04:56:31.742Z,2.35
2023-01-19T04:58:59.482Z,2.20
2023-01-19T05:01:27.592Z,2.11
2023-01-19T05:03:55.358Z,2.24
2023-01-19T05:06:23.089Z,2.15
2023-01-19T05:08:50.810Z,2.18
2023-01-19T05:11:19.943Z,2.24
2023-01-19T05:13:48.188Z,2.03
2023-01-19T05:16:16.534Z,2.06
2023-01-19T05:18:44.371Z,1.93
2023-01-19T05:21:12.082Z,2.00
2023-01-19T05:23:39.786Z,2.00
2023-01-19T05:26:09.491Z,1.87
2023-01-19T05:28:38.924Z,1.78
2023-01-19T05:31:06.836Z,1.67
2023-01-19T05:33:34.719Z,1.71
2023-01-19T05:36:02.531Z,1.89
2023-01-19T05:38:35.296Z,1.98
2023-01-19T05:41:03.696Z,1.99
2023-01-19T05:43:31.419Z,1.91
2023-01-19T05:46:00.595Z,1.99
2023-01-19T05:48:28.230Z,1.97
2023-01-19T05:50:58.918Z,2.16
2023-01-19T05:53:27.143Z,2.36
2023-01-19T05:55:55.188Z,2.48
2023-01-19T05:58:22.830Z,2.63
2023-01-19T06:00:50.585Z,2.74
2023-01-19T06:03:19.686Z,2.77
2023-01-19T06:05:47.444Z,2.90
2023-01-19T06:08:15.272Z,2.85
2023-01-19T06:10:43.092Z,2.86
2023-01-19T06:13:11.226Z,2.77
2023-01-19T06:15:38.933Z,2.41
2023-01-19T06:18:06.847Z,2.24
2023-01-19T06:20:36.718Z,2.10
2023-01-19T06:23:04.787Z,2.00
2023-01-19T06:25:32.447Z,1.90
2023-01-19T06:28:00.224Z,1.87
2023-01-19T06:30:29.073Z,2.03
2023-01-19T06:32:56.870Z,1.99
2023-01-19T06:35:24.657Z,1.97
2023-01-19T06:37:53.822Z,1.97
2023-01-19T06:40:21.539Z,2.03
2023-01-19T06:42:49.793Z,2.02
2023-01-19T06:45:17.532Z,1.87
2023-01-19T06:47:47.954Z,1.79
2023-01-19T06:50:16.061Z,1.81
2023-01-19T06:52:43.787Z,1.69
2023-01-19T06:55:14.542Z,1.72
2023-01-19T06:57:42.186Z,1.72
2023-01-19T07:00:11.768Z,1.60
2023-01-19T07:02:43.417Z,1.76
2023-01-19T07:05:14.290Z,1.81
2023-01-19T07:07:43.204Z,1.95
2023-01-19T07:10:13.055Z,2.13
2023-01-19T07:12:40.894Z,2.29
2023-01-19T07:15:11.692Z,2.28
2023-01-19T07:17:39.425Z,2.49
2023-01-19T07:20:08.783Z,2.61
2023-01-19T07:22:36.524Z,2.91
2023-01-19T07:25:04.744Z,2.93
2023-01-19T07:27:37.196Z,2.95
2023-01-19T07:30:05.565Z,3.09
2023-01-19T07:32:33.347Z,3.16
2023-01-19T07:35:00.996Z,3.22
2023-01-19T07:37:28.850Z,3.26
2023-01-19T07:39:56.561Z,3.21
2023-01-19T07:42:24.355Z,3.19
2023-01-19T07:44:53.567Z,3.13
2023-01-19T07:47:21.376Z,3.03
2023-01-19T07:49:49.120Z,2.92
2023-01-19T07:52:16.800Z,2.97
2023-01-19T07:54:44.531Z,3.03
2023-01-19T07:57:12.255Z,2.94
2023-01-19T07:59:39.992Z,2.74
2023-01-19T08:02:10.490Z,2.71
2023-01-19T08:04:38.256Z,2.72
2023-01-19T08:07:06.037Z,2.65
2023-01-19T08:09:33.707Z,2.61
2023-01-19T08:12:01.619Z,2.60
2023-01-19T08:14:29.286Z,2.67
2023-01-19T08:17:00.362Z,2.70
2023-01-19T08:19:29.464Z,2.72
2023-01-19T08:21:58.842Z,2.69
2023-01-19T08:24:28.650Z,2.67
2023-01-19T08:27:00.309Z,2.90
2023-01-19T08:29:30.695Z,3.16
2023-01-19T08:32:00.077Z,3.38
2023-01-19T08:34:31.499Z,3.47
2023-01-19T08:36:59.967Z,3.39
2023-01-19T08:39:27.841Z,3.30
2023-01-19T08:41:55.894Z,3.36
2023-01-19T08:44:23.776Z,3.21
2023-01-19T08:46:51.460Z,3.23
2023-01-19T08:49:19.232Z,3.42
2023-01-19T08:51:49.115Z,3.39
2023-01-19T08:54:18.537Z,3.59
2023-01-19T08:56:46.494Z,3.75
2023-01-19T08:59:14.371Z,3.85
2023-01-19T09:01:42.377Z,3.88
2023-01-19T09:04:10.213Z,3.99
2023-01-19T09:06:38.132Z,3.91
2023-01-19T09:09:07.226Z,3.74
2023-01-19T09:11:36.325Z,3.61
2023-01-19T09:14:05.663Z,3.58
2023-01-19T09:16:33.343Z,4.03
2023-01-19T09:19:01.284Z,4.95
2023-01-19T09:21:29.390Z,6.30
2023-01-19T09:23:57.772Z,8.25
2023-01-19T09:26:27.111Z,9.63
2023-01-19T09:28:54.846Z,10.48
2023-01-19T09:31:22.707Z,11.59
2023-01-19T09:33:50.513Z,12.55
2023-01-19T09:36:18.299Z,13.80
2023-01-19T09:38:46.116Z,13.35
2023-01-19T09:41:20.160Z,13.53
2023-01-19T09:43:54.104Z,15.83
2023-01-19T09:46:25.728Z,17.77
2023-01-19T09:48:56.519Z,18.83
2023-01-19T09:51:26.628Z,18.72
2023-01-19T09:54:04.147Z,19.37
2023-01-19T09:56:32.843Z,18.71
2023-01-19T09:59:02.526Z,18.42
2023-01-19T10:01:47.585Z,17.58
2023-01-19T10:04:30.589Z,15.90
2023-01-19T10:07:07.719Z,14.21
2023-01-19T10:09:46.541Z,12.52
2023-01-19T10:12:23.365Z,11.68
2023-01-19T10:15:01.723Z,11.01
2023-01-19T10:17:40.472Z,10.11
2023-01-19T10:20:16.036Z,9.28
2023-01-19T10:22:51.578Z,8.64
2023-01-19T10:25:23.680Z,8.21
2023-01-19T10:27:51.467Z,7.84
2023-01-19T10:30:24.442Z,7.53
2023-01-19T10:32:52.886Z,7.29
2023-01-19T10:35:24.595Z,7.05
2023-01-19T10:37:54.059Z,6.87
2023-01-19T10:40:30.901Z,6.82
2023-01-19T10:42:59.669Z,6.80
2023-01-19T10:45:31.620Z,6.62
2023-01-19T10:48:06.503Z,6.47
2023-01-19T10:50:37.163Z,6.36
2023-01-19T10:53:06.756Z,6.28
2023-01-19T10:55:37.966Z,6.25
2023-01-19T10:58:07.583Z,6.25
2023-01-19T11:00:39.322Z,6.34
2023-01-19T11:03:24.192Z,6.32
2023-01-19T11:05:52.518Z,6.41
2023-01-19T11:08:24.634Z,6.54
2023-01-19T11:10:58.936Z,6.62
2023-01-19T11:13:26.657Z,6.50
2023-01-19T11:15:58.501Z,6.42
2023-01-19T11:18:34.866Z,6.38
2023-01-19T11:21:06.418Z,6.35
2023-01-19T11:23:42.170Z,6.28
2023-01-19T11:26:15.795Z,6.28
2023-01-19T11:28:48.499Z,6.16
2023-01-19T11:31:32.204Z,6.06
2023-01-19T11:34:01.267Z,6.00
2023-01-19T11:36:30.886Z,5.98
2023-01-19T11:39:00.667Z,6.00
2023-01-19T11:41:30.559Z,5.92
2023-01-19T11:44:01.263Z,5.86
2023-01-19T11:46:36.216Z,5.89
2023-01-19T11:49:09.101Z,5.92
2023-01-19T11:51:45.013Z,5.97
2023-01-19T11:54:20.915Z,6.03
2023-01-19T11:56:49.556Z,5.96
2023-01-19T11:59:17.373Z,5.97
2023-01-19T12:01:50.561Z,5.99
2023-01-19T12:04:22.758Z,5.99
2023-01-19T12:06:53.880Z,5.93
2023-01-19T12:09:24.646Z,5.86
2023-01-19T12:12:01.675Z,5.90
2023-01-19T12:14:36.233Z,5.94
2023-01-19T12:17:08.579Z,6.00
2023-01-19T12:19:44.171Z,6.06
2023-01-19T12:22:16.545Z,6.10
2023-01-19T12:24:50.035Z,6.17
2023-01-19T12:27:28.139Z,6.22
2023-01-19T12:29:56.358Z,6.22
2023-01-19T12:32:35.041Z,6.25
2023-01-19T12:35:02.888Z,6.25
2023-01-19T12:37:38.114Z,6.29
2023-01-19T12:40:21.223Z,6.33
2023-01-19T12:42:56.881Z,6.37
2023-01-19T12:45:26.882Z,6.43
2023-01-19T12:47:57.576Z,6.46
2023-01-19T12:50:29.640Z,6.53
2023-01-19T12:52:59.754Z,6.56
2023-01-19T12:55:31.090Z,6.55
2023-01-19T12:58:02.672Z,6.51
2023-01-19T13:00:37.416Z,6.47
2023-01-19T13:03:42.067Z,6.52
2023-01-19T13:06:09.816Z,6.49
2023-01-19T13:09:01.343Z,6.48
2023-01-19T13:11:34.094Z,6.50
2023-01-19T13:14:34.516Z,6.56
2023-01-19T13:17:21.684Z,6.49
2023-01-19T13:19:56.049Z,6.46
2023-01-19T13:22:52.806Z,6.46
2023-01-19T13:25:30.933Z,6.40
2023-01-19T13:27:59.194Z,6.42
2023-01-19T13:30:29.797Z,6.44
2023-01-19T13:33:02.604Z,6.48
2023-01-19T13:35:31.894Z,6.53
2023-01-19T13:38:00.843Z,6.58
2023-01-19T13:40:38.229Z,6.60
2023-01-19T13:43:14.979Z,6.61
2023-01-19T13:45:49.867Z,6.63
2023-01-19T13:48:22.415Z,6.61
2023-01-19T13:51:03.975Z,6.63
2023-01-19T13:53:32.535Z,6.57
2023-01-19T13:56:21.844Z,6.54
2023-01-19T13:59:09.790Z,6.46
2023-01-19T14:01:39.713Z,6.48
2023-01-19T14:04:08.043Z,6.53
2023-01-19T14:06:42.937Z,6.55
2023-01-19T14:09:17.870Z,6.49
2023-01-19T14:11:47.527Z,6.54
2023-01-19T14:14:26.644Z,6.51
2023-01-19T14:16:55.805Z,6.52
2023-01-19T14:19:23.670Z,6.54
2023-01-19T14:22:04.495Z,6.57
2023-01-19T14:24:33.293Z,6.56
2023-01-19T14:27:19.901Z,6.55
2023-01-19T14:29:50.566Z,6.56
2023-01-19T14:32:20.630Z,6.56
2023-01-19T14:34:50.237Z,6.55
2023-01-19T14:37:25.290Z,6.57
2023-01-19T14:39:58.775Z,6.43
2023-01-19T14:42:29.870Z,6.43
2023-01-19T14:45:01.810Z,6.43
2023-01-19T14:47:36.741Z,6.33
2023-01-19T14:50:10.776Z,6.26
2023-01-19T14:52:43.223Z,6.09
2023-01-19T14:55:21.786Z,6.07
2023-01-19T14:57:49.853Z,6.13
2023-01-19T15:00:20.121Z,6.07
2023-01-19T15:02:48.340Z,6.07
2023-01-19T15:05:16.705Z,6.04
2023-01-19T15:07:47.722Z,5.86
2023-01-19T15:10:20.679Z,5.71
2023-01-19T15:12:48.894Z,5.55
2023-01-19T15:15:18.541Z,5.45
2023-01-19T15:17:46.758Z,5.45
2023-01-19T15:20:20.253Z,5.44
2023-01-19T15:22:49.975Z,5.52
2023-01-19T15:25:20.363Z,5.60
2023-01-19T15:27:49.437Z,5.65
2023-01-19T15:30:20.766Z,5.59
2023-01-19T15:32:48.677Z,5.66
2023-01-19T15:35:17.964Z,5.64
2023-01-19T15:37:46.190Z,5.62
2023-01-19T15:40:16.523Z,5.67
2023-01-19T15:42:44.282Z,5.56
2023-01-19T15:45:33.728Z,5.33
2023-01-19T15:48:03.850Z,5.13
2023-01-19T15:50:32.074Z,5.11
2023-01-19T15:53:00.478Z,5.11
2023-01-19T15:55:29.841Z,5.01
2023-01-19T15:58:01.475Z,4.79
2023-01-19T16:00:30.426Z,4.74
2023-01-19T16:03:12.783Z,4.71
2023-01-19T16:05:43.874Z,4.64
2023-01-19T16:08:12.508Z,4.70
2023-01-19T16:10:42.368Z,4.71
2023-01-19T16:13:11.559Z,4.62
2023-01-19T16:15:40.249Z,4.51
2023-01-19T16:18:08.051Z,4.54
2023-01-19T16:20:35.811Z,4.49
2023-01-19T16:23:14.426Z,4.49
2023-01-19T16:25:44.913Z,4.59
2023-01-19T16:28:12.989Z,4.57
2023-01-19T16:30:40.779Z,4.58
2023-01-19T16:33:11.556Z,4.67
2023-01-19T16:35:39.442Z,4.71
2023-01-19T16:38:07.096Z,4.73
2023-01-19T16:40:34.768Z,4.83
2023-01-19T16:43:03.999Z,4.98
2023-01-19T16:45:31.623Z,5.07
2023-01-19T16:47:59.361Z,5.12
2023-01-19T16:50:27.181Z,5.07
2023-01-19T16:52:57.426Z,5.09
2023-01-19T16:55:25.131Z,5.07
2023-01-19T16:57:52.932Z,5.06
2023-01-19T17:00:22.546Z,5.08
2023-01-19T17:02:50.343Z,5.05
2023-01-19T17:05:18.322Z,5.10
2023-01-19T17:07:46.126Z,5.01
2023-01-19T17:10:14.061Z,4.88
2023-01-19T17:12:41.852Z,4.86
2023-01-19T17:15:10.521Z,4.88
2023-01-19T17:17:39.575Z,4.88
2023-01-19T17:20:08.461Z,4.93
2023-01-19T17:22:36.234Z,5.07
2023-01-19T17:25:04.268Z,5.13
2023-01-19T17:27:32.184Z,5.21
2023-01-19T17:29:59.833Z,5.32
2023-01-19T17:32:27.525Z,5.29
2023-01-19T17:34:56.704Z,5.23
2023-01-19T17:37:24.404Z,5.11
2023-01-19T17:39:52.184Z,4.99
2023-01-19T17:42:19.942Z,4.82
2023-01-19T17:44:47.709Z,4.75
2023-01-19T17:47:15.447Z,4.87
2023-01-19T17:49:44.927Z,4.98
2023-01-19T17:52:14.686Z,5.02
2023-01-19T17:54:43.723Z,5.00
2023-01-19T17:57:11.472Z,5.05
2023-01-19T17:59:40.982Z,5.03
2023-01-19T18:02:10.478Z,5.07
2023-01-19T18:04:39.118Z,5.03
2023-01-19T18:07:07.195Z,5.09
2023-01-19T18:09:36.391Z,5.18
2023-01-19T18:12:04.190Z,5.20
2023-01-19T18:14:31.985Z,5.17
2023-01-19T18:16:59.760Z,5.20
2023-01-19T18:19:27.939Z,5.14
2023-01-19T18:21:56.637Z,5.09
2023-01-19T18:24:24.394Z,5.11
2023-01-19T18:26:55.671Z,5.16
2023-01-19T18:29:23.646Z,5.26
2023-01-19T18:31:51.406Z,5.31
2023-01-19T18:34:19.164Z,5.28
2023-01-19T18:36:46.904Z,5.28
2023-01-19T18:39:14.595Z,5.22
2023-01-19T18:41:42.943Z,5.20
2023-01-19T18:44:12.881Z,5.16
2023-01-19T18:46:40.675Z,5.24
2023-01-19T18:49:08.975Z,5.11
2023-01-19T18:51:36.925Z,5.12
2023-01-19T18:54:04.775Z,5.12
2023-01-19T18:56:32.502Z,5.14
2023-01-19T18:59:00.314Z,5.25
2023-01-19T19:01:32.962Z,5.30
2023-01-19T19:04:00.899Z,5.36
2023-01-19T19:06:29.162Z,5.35
2023-01-19T19:08:59.212Z,5.40
2023-01-19T19:11:28.457Z,5.39
2023-01-19T19:13:58.453Z,5.29
2023-01-19T19:16:26.338Z,5.24
2023-01-19T19:18:55.841Z,5.32
2023-01-19T19:21:25.316Z,5.36
2023-01-19T19:23:54.816Z,5.41
2023-01-19T19:26:23.060Z,5.42
2023-01-19T19:28:50.958Z,5.31
2023-01-19T19:31:21.138Z,5.15
2023-01-19T19:33:50.785Z,4.96
2023-01-19T19:36:21.616Z,4.79
2023-01-19T19:38:49.541Z,4.73
2023-01-19T19:41:19.803Z,4.66
2023-01-19T19:43:47.847Z,4.77
2023-01-19T19:46:17.747Z,4.90
2023-01-19T19:48:45.699Z,4.89
2023-01-19T19:51:19.211Z,4.99
2023-01-19T19:53:51.401Z,4.99
2023-01-19T19:56:21.932Z,5.05
2023-01-19T19:58:50.459Z,5.04
2023-01-19T20:01:20.404Z,5.02
2023-01-19T20:03:48.421Z,5.12
2023-01-19T20:06:20.661Z,5.20
2023-01-19T20:08:50.302Z,5.32
2023-01-19T20:11:19.866Z,5.36
2023-01-19T20:13:47.726Z,5.31
2023-01-19T20:16:17.783Z,5.26
2023-01-19T20:18:55.247Z,5.19
2023-01-19T20:21:25.370Z,5.18
2023-01-19T20:23:55.606Z,5.23
2023-01-19T20:26:26.408Z,5.11
2023-01-19T20:28:54.505Z,5.02
2023-01-19T20:31:24.447Z,4.98
2023-01-19T20:33:52.954Z,4.96
2023-01-19T20:36:22.097Z,4.87
2023-01-19T20:38:49.835Z,4.90
2023-01-19T20:41:19.541Z,4.92
2023-01-19T20:43:47.372Z,4.93
2023-01-19T20:46:15.276Z,5.05
2023-01-19T20:48:43.079Z,5.08
2023-01-19T20:51:13.049Z,5.09
2023-01-19T20:53:42.243Z,5.14
2023-01-19T20:56:12.874Z,5.11
2023-01-19T20:58:42.450Z,5.14
2023-01-19T21:01:11.751Z,5.16
2023-01-19T21:03:39.865Z,5.18
2023-01-19T21:06:08.124Z,5.22
2023-01-19T21:08:36.422Z,5.16
2023-01-19T21:11:04.873Z,5.06
2023-01-19T21:13:32.955Z,5.04
2023-01-19T21:16:02.832Z,5.13
2023-01-19T21:18:30.524Z,5.24
2023-01-19T21:20:58.565Z,5.09
2023-01-19T21:23:27.332Z,5.01
2023-01-19T21:25:56.871Z,4.98
2023-01-19T21:28:24.937Z,4.97
2023-01-19T21:30:53.906Z,4.94
2023-01-19T21:33:23.811Z,5.00
2023-01-19T21:35:52.345Z,5.06
2023-01-19T21:38:20.800Z,5.14
2023-01-19T21:40:48.522Z,5.08
2023-01-19T21:43:20.017Z,5.03
2023-01-19T21:45:49.386Z,4.99
2023-01-19T21:48:17.387Z,4.91
2023-01-19T21:50:46.524Z,4.83
2023-01-19T21:53:15.637Z,4.86
2023-01-19T21:55:45.651Z,4.96
2023-01-19T21:58:13.365Z,5.04
2023-01-19T22:00:41.183Z,5.01
2023-01-19T22:03:09.132Z,4.95
2023-01-19T22:05:37.530Z,4.95
2023-01-19T22:08:06.985Z,5.04
2023-01-19T22:10:36.757Z,5.13
2023-01-19T22:13:06.603Z,5.21
2023-01-19T22:15:34.477Z,5.24
2023-01-19T22:18:02.240Z,5.17
2023-01-19T22:20:29.941Z,5.06
2023-01-19T22:22:57.822Z,5.01
2023-01-19T22:25:27.903Z,5.00
2023-01-19T22:27:55.981Z,4.91
2023-01-19T22:30:23.776Z,4.86
2023-01-19T22:32:53.184Z,4.79
2023-01-19T22:35:21.319Z,4.62
2023-01-19T22:37:49.121Z,4.62
2023-01-19T22:40:17.293Z,4.78
2023-01-19T22:42:48.110Z,4.82
2023-01-19T22:45:16.180Z,4.90
2023-01-19T22:47:44.004Z,4.92
2023-01-19T22:50:11.899Z,4.92
2023-01-19T22:52:39.527Z,4.92
2023-01-19T22:55:07.720Z,4.89
2023-01-19T22:57:36.575Z,4.86
2023-01-19T23:00:08.888Z,4.86
2023-01-19T23:02:36.773Z,4.89
2023-01-19T23:05:04.947Z,4.86
2023-01-19T23:07:32.689Z,4.76
2023-01-19T23:10:00.420Z,4.75
2023-01-19T23:12:28.146Z,4.78
2023-01-19T23:14:55.872Z,4.77
2023-01-19T23:17:25.020Z,4.70
2023-01-19T23:19:52.742Z,4.52
2023-01-19T23:22:20.421Z,4.33
2023-01-19T23:24:49.093Z,4.31
2023-01-19T23:27:17.866Z,4.23
2023-01-19T23:29:46.452Z,4.22
2023-01-19T23:32:14.524Z,4.30
2023-01-19T23:34:44.142Z,4.41
2023-01-19T23:37:11.803Z,4.50
2023-01-19T23:39:39.907Z,4.55
2023-01-19T23:42:08.844Z,4.56
2023-01-19T23:44:36.778Z,4.52
2023-01-19T23:47:04.557Z,4.48
2023-01-19T23:49:32.217Z,4.49
2023-01-19T23:52:01.482Z,4.42
2023-01-19T23:54:29.211Z,4.31
2023-01-19T23:56:57.494Z,4.29
2023-01-19T23:59:25.277Z,4.26
